Terminal Aerodrome Forecast
Issued by NWS

Current Version | Previous Version | Text Only | Print | Product List | Glossary On
Versions: 1 2 3 4 5 6 7 8 9 10 11 12 13 14 15
000
FTUS42 TJSJ 050549
TAFNCM
TAF
TNCM 050549Z 0506/0606 08010KT P6SM SCT020
     FM051330 08015G25KT P6SM SCT022=

USA.gov is the U.S. government's official web portal to all federal, state and local government web resources and services.